createdAt,value
2018-05-27T00:00:25.901Z,17.99
2018-05-27T00:01:25.893Z,17.99
2018-05-27T00:02:25.890Z,17.90
2018-05-27T00:03:25.877Z,17.93
2018-05-27T00:04:25.874Z,17.97
2018-05-27T00:05:25.865Z,17.92
2018-05-27T00:06:25.865Z,17.97
2018-05-27T00:07:25.850Z,17.93
2018-05-27T00:08:25.838Z,17.96
2018-05-27T00:09:25.845Z,17.92
2018-05-27T00:10:25.824Z,17.93
2018-05-27T00:11:25.818Z,17.95
2018-05-27T00:12:25.811Z,17.90
2018-05-27T00:13:25.799Z,17.97
2018-05-27T00:14:25.796Z,17.99
2018-05-27T00:15:25.801Z,17.95
2018-05-27T00:16:25.783Z,17.95
2018-05-27T00:17:25.771Z,17.99
2018-05-27T00:18:25.763Z,17.95
2018-05-27T00:19:25.757Z,17.89
2018-05-27T00:20:25.749Z,17.95
2018-05-27T00:21:25.738Z,17.92
2018-05-27T00:22:25.732Z,17.87
2018-05-27T00:23:25.724Z,17.90
2018-05-27T00:24:25.717Z,17.84
2018-05-27T00:25:25.711Z,17.90
2018-05-27T00:26:25.702Z,17.84
2018-05-27T00:27:25.693Z,17.87
2018-05-27T00:28:25.685Z,17.82
2018-05-27T00:29:25.676Z,17.74
2018-05-27T00:30:25.667Z,17.86
2018-05-27T00:31:25.661Z,17.86
2018-05-27T00:32:25.653Z,17.86
2018-05-27T00:33:25.646Z,17.77
2018-05-27T00:34:25.638Z,17.84
2018-05-27T00:35:25.628Z,17.72
2018-05-27T00:36:25.623Z,17.81
2018-05-27T00:37:25.614Z,17.77
2018-05-27T00:38:25.608Z,17.79
2018-05-27T00:39:25.597Z,17.75
2018-05-27T00:40:25.593Z,17.71
2018-05-27T00:41:25.585Z,17.75
2018-05-27T00:42:25.581Z,17.71
2018-05-27T00:43:25.568Z,17.77
2018-05-27T00:44:25.595Z,17.66
2018-05-27T00:45:25.549Z,17.59
2018-05-27T00:46:25.538Z,17.54
2018-05-27T00:47:25.536Z,17.62
2018-05-27T00:48:25.527Z,17.55
2018-05-27T00:49:25.517Z,17.49
2018-05-27T00:50:25.511Z,17.46
2018-05-27T00:51:25.509Z,17.41
2018-05-27T00:52:25.498Z,17.38
2018-05-27T00:53:25.489Z,17.44
2018-05-27T00:54:25.482Z,17.33
2018-05-27T00:55:25.472Z,17.41
2018-05-27T00:56:25.464Z,17.41
2018-05-27T00:57:25.456Z,17.26
2018-05-27T00:58:25.447Z,17.33
2018-05-27T00:59:25.451Z,17.28
2018-05-27T01:00:25.434Z,17.36
2018-05-27T01:01:25.421Z,17.28
2018-05-27T01:02:25.421Z,17.25
2018-05-27T01:03:25.408Z,17.33
2018-05-27T01:04:25.398Z,17.19
2018-05-27T01:05:25.393Z,17.22
2018-05-27T01:06:25.384Z,17.18
2018-05-27T01:07:25.379Z,17.15
2018-05-27T01:08:25.372Z,17.15
2018-05-27T01:09:25.359Z,17.14
2018-05-27T01:10:25.356Z,17.15
2018-05-27T01:11:25.339Z,17.15
2018-05-27T01:12:25.339Z,17.14
2018-05-27T01:13:25.332Z,17.08
2018-05-27T01:14:25.412Z,17.08
2018-05-27T01:15:25.310Z,16.97
2018-05-27T01:16:25.297Z,17.00
2018-05-27T01:17:25.296Z,16.98
2018-05-27T01:18:25.283Z,17.00
2018-05-27T01:19:25.279Z,16.94
2018-05-27T01:20:25.271Z,16.93
2018-05-27T01:21:25.263Z,16.94
2018-05-27T01:22:25.255Z,16.88
2018-05-27T01:23:25.244Z,16.98
2018-05-27T01:24:25.240Z,16.98
2018-05-27T01:25:25.229Z,16.91
2018-05-27T01:26:25.220Z,16.89
2018-05-27T01:27:25.212Z,16.94
2018-05-27T01:28:25.210Z,16.96
2018-05-27T01:29:25.195Z,16.94
2018-05-27T01:30:25.192Z,16.93
2018-05-27T01:31:25.182Z,16.93
2018-05-27T01:32:25.169Z,16.93
2018-05-27T01:33:25.163Z,17.00
2018-05-27T01:34:25.153Z,16.97
2018-05-27T01:35:25.149Z,16.86
2018-05-27T01:36:25.138Z,16.89
2018-05-27T01:37:25.122Z,16.83
2018-05-27T01:38:25.122Z,16.82
2018-05-27T01:39:25.114Z,16.86
2018-05-27T01:40:25.106Z,16.94
2018-05-27T01:41:25.095Z,16.79
2018-05-27T01:42:25.087Z,16.96
2018-05-27T01:43:25.079Z,16.91
2018-05-27T01:44:25.067Z,16.93
2018-05-27T01:45:25.064Z,16.94
2018-05-27T01:46:25.049Z,16.97
2018-05-27T01:47:25.044Z,16.89
2018-05-27T01:48:25.041Z,16.91
2018-05-27T01:49:25.029Z,17.03
2018-05-27T01:50:25.034Z,17.00
2018-05-27T01:51:25.012Z,17.00
2018-05-27T01:52:25.003Z,17.00
2018-05-27T01:53:24.991Z,17.04
2018-05-27T01:54:24.987Z,17.04
2018-05-27T01:55:24.975Z,17.11
2018-05-27T01:56:24.966Z,17.15
2018-05-27T01:57:24.958Z,17.07
2018-05-27T01:58:24.949Z,17.07
2018-05-27T01:59:24.944Z,17.06
2018-05-27T02:00:24.932Z,17.04
2018-05-27T02:01:24.922Z,17.04
2018-05-27T02:02:24.915Z,17.03
2018-05-27T02:03:24.908Z,17.03
2018-05-27T02:04:24.901Z,16.97
2018-05-27T02:05:24.889Z,16.94
2018-05-27T02:06:24.882Z,16.93
2018-05-27T02:07:24.875Z,16.96
2018-05-27T02:08:24.864Z,16.98
2018-05-27T02:09:24.859Z,17.00
2018-05-27T02:10:24.850Z,17.00
2018-05-27T02:11:24.838Z,17.06
2018-05-27T02:12:24.829Z,17.03
2018-05-27T02:13:24.826Z,16.85
2018-05-27T02:14:24.811Z,16.73
2018-05-27T02:15:24.803Z,16.71
2018-05-27T02:16:24.803Z,16.67
2018-05-27T02:17:24.788Z,16.64
2018-05-27T02:18:24.782Z,16.66
2018-05-27T02:19:24.778Z,16.73
2018-05-27T02:20:24.762Z,16.50
2018-05-27T02:21:24.752Z,16.38
2018-05-27T02:22:24.746Z,16.34
2018-05-27T02:23:24.737Z,16.20
2018-05-27T02:24:24.728Z,16.09
2018-05-27T02:25:24.722Z,16.12
2018-05-27T02:26:24.710Z,16.08
2018-05-27T02:27:24.700Z,16.15
2018-05-27T02:28:24.694Z,16.08
2018-05-27T02:29:24.690Z,16.14
2018-05-27T02:30:24.677Z,16.12
2018-05-27T02:31:24.675Z,16.17
2018-05-27T02:32:24.667Z,16.27
2018-05-27T02:33:24.647Z,16.25
2018-05-27T02:34:24.640Z,16.35
2018-05-27T02:35:24.635Z,16.41
2018-05-27T02:36:24.627Z,16.39
2018-05-27T02:37:24.614Z,16.39
2018-05-27T02:38:24.611Z,16.30
2018-05-27T02:39:24.653Z,16.27
2018-05-27T02:40:24.597Z,16.21
2018-05-27T02:41:24.582Z,16.08
2018-05-27T02:42:24.590Z,16.08
2018-05-27T02:43:24.565Z,16.08
2018-05-27T02:44:24.553Z,16.05
2018-05-27T02:45:24.563Z,16.09
2018-05-27T02:46:24.539Z,16.21
2018-05-27T02:47:24.539Z,16.24
2018-05-27T02:48:24.523Z,16.21
2018-05-27T02:49:24.525Z,16.31
2018-05-27T02:50:24.501Z,16.31
2018-05-27T02:51:24.491Z,16.39
2018-05-27T02:52:24.490Z,16.43
2018-05-27T02:53:24.476Z,16.49
2018-05-27T02:54:24.465Z,16.52
2018-05-27T02:55:24.499Z,16.61
2018-05-27T02:56:24.450Z,16.63
2018-05-27T02:57:24.445Z,16.58
2018-05-27T02:58:24.436Z,16.64
2018-05-27T02:59:24.431Z,16.63
2018-05-27T03:00:24.460Z,16.58
2018-05-27T03:01:24.411Z,16.64
2018-05-27T03:02:24.399Z,16.68
2018-05-27T03:03:24.417Z,16.68
2018-05-27T03:04:24.383Z,16.73
2018-05-27T03:05:24.373Z,16.71
2018-05-27T03:06:24.359Z,16.73
2018-05-27T03:07:24.357Z,16.63
2018-05-27T03:08:24.350Z,16.56
2018-05-27T03:09:24.343Z,16.63
2018-05-27T03:10:24.333Z,16.63
2018-05-27T03:11:24.322Z,16.57
2018-05-27T03:12:24.314Z,16.61
2018-05-27T03:13:24.301Z,16.66
2018-05-27T03:14:24.297Z,16.56
2018-05-27T03:15:24.285Z,16.56
2018-05-27T03:16:24.279Z,16.63
2018-05-27T03:17:24.266Z,16.57
2018-05-27T03:18:24.260Z,16.60
2018-05-27T03:19:24.250Z,16.70
2018-05-27T03:20:24.240Z,16.60
2018-05-27T03:21:24.231Z,16.63
2018-05-27T03:22:24.221Z,16.58
2018-05-27T03:23:24.216Z,16.57
2018-05-27T03:24:24.207Z,16.56
2018-05-27T03:25:24.199Z,16.60
2018-05-27T03:26:24.199Z,16.50
2018-05-27T03:27:24.181Z,16.49
2018-05-27T03:28:24.173Z,16.43
2018-05-27T03:29:24.165Z,16.38
2018-05-27T03:30:24.151Z,16.39
2018-05-27T03:31:24.147Z,16.23
2018-05-27T03:32:24.136Z,16.07
2018-05-27T03:33:24.128Z,16.04
2018-05-27T03:34:24.124Z,16.08
2018-05-27T03:35:24.112Z,16.04
2018-05-27T03:36:24.102Z,16.00
2018-05-27T03:37:24.096Z,16.05
2018-05-27T03:38:24.085Z,16.01
2018-05-27T03:39:24.072Z,16.04
2018-05-27T03:40:24.071Z,16.05
2018-05-27T03:41:24.059Z,16.08
2018-05-27T03:42:24.048Z,16.05
2018-05-27T03:43:24.042Z,16.08
2018-05-27T03:44:24.032Z,16.11
2018-05-27T03:45:24.022Z,16.23
2018-05-27T03:46:24.012Z,16.09
2018-05-27T03:47:24.008Z,16.04
2018-05-27T03:48:23.999Z,16.08
2018-05-27T03:49:23.989Z,16.05
2018-05-27T03:50:23.978Z,16.05
2018-05-27T03:51:23.970Z,16.05
2018-05-27T03:52:23.964Z,16.12
2018-05-27T03:53:23.949Z,16.08
2018-05-27T03:54:23.941Z,16.04
2018-05-27T03:55:23.935Z,16.08
2018-05-27T03:56:23.924Z,16.11
2018-05-27T03:57:23.916Z,16.08
2018-05-27T03:58:23.909Z,16.21
2018-05-27T03:59:23.906Z,16.27
2018-05-27T04:00:23.890Z,16.23
2018-05-27T04:01:23.880Z,16.27
2018-05-27T04:02:23.871Z,16.27
2018-05-27T04:03:23.862Z,16.23
2018-05-27T04:04:23.851Z,16.25
2018-05-27T04:05:23.849Z,16.28
2018-05-27T04:06:23.841Z,16.33
2018-05-27T04:07:23.825Z,16.42
2018-05-27T04:08:23.818Z,16.30
2018-05-27T04:09:23.812Z,16.23
2018-05-27T04:10:23.796Z,16.30
2018-05-27T04:11:23.790Z,16.30
2018-05-27T04:12:23.784Z,16.25
2018-05-27T04:13:23.771Z,16.27
2018-05-27T04:14:23.767Z,16.34
2018-05-27T04:15:23.755Z,16.27
2018-05-27T04:16:23.744Z,16.38
2018-05-27T04:17:23.738Z,16.25
2018-05-27T04:18:23.728Z,16.33
2018-05-27T04:19:23.716Z,16.39
2018-05-27T04:20:23.715Z,16.30
2018-05-27T04:21:23.705Z,16.33
2018-05-27T04:22:23.691Z,16.41
2018-05-27T04:23:23.683Z,16.38
2018-05-27T04:24:23.679Z,16.41
2018-05-27T04:25:23.671Z,16.30
2018-05-27T04:26:23.657Z,16.42
2018-05-27T04:27:23.652Z,16.38
2018-05-27T04:28:23.648Z,16.46
2018-05-27T04:29:23.630Z,16.42
2018-05-27T04:30:23.622Z,16.49
2018-05-27T04:31:23.616Z,16.43
2018-05-27T04:32:23.608Z,16.45
2018-05-27T04:33:23.598Z,16.52
2018-05-27T04:34:23.591Z,16.56
2018-05-27T04:35:23.579Z,16.50
2018-05-27T04:36:23.571Z,16.56
2018-05-27T04:37:23.563Z,16.50
2018-05-27T04:38:23.557Z,16.45
2018-05-27T04:39:23.549Z,16.56
2018-05-27T04:40:23.535Z,16.52
2018-05-27T04:41:23.525Z,16.52
2018-05-27T04:42:23.519Z,16.50
2018-05-27T04:43:23.507Z,16.56
2018-05-27T04:44:23.496Z,16.50
2018-05-27T04:45:23.492Z,16.49
2018-05-27T04:46:23.482Z,16.48
2018-05-27T04:47:23.468Z,16.43
2018-05-27T04:48:23.466Z,16.39
2018-05-27T04:49:23.449Z,16.30
2018-05-27T04:50:23.448Z,16.38
2018-05-27T04:51:23.437Z,16.28
2018-05-27T04:52:23.444Z,16.30
2018-05-27T04:53:23.461Z,16.38
2018-05-27T04:54:23.433Z,16.42
2018-05-27T04:55:23.400Z,16.35
2018-05-27T04:56:23.397Z,16.39
2018-05-27T04:57:23.386Z,16.48
2018-05-27T04:58:23.378Z,16.43
2018-05-27T04:59:23.369Z,16.49
2018-05-27T05:00:23.356Z,16.46
2018-05-27T05:01:23.355Z,16.53
2018-05-27T05:02:23.338Z,16.48
2018-05-27T05:03:23.332Z,16.48
2018-05-27T05:04:23.321Z,16.52
2018-05-27T05:05:23.316Z,16.52
2018-05-27T05:06:23.311Z,16.50
2018-05-27T05:07:23.299Z,16.49
2018-05-27T05:08:23.299Z,16.52
2018-05-27T05:09:23.285Z,16.52
2018-05-27T05:10:23.273Z,16.52
2018-05-27T05:11:23.264Z,16.45
2018-05-27T05:12:23.254Z,16.46
2018-05-27T05:13:23.245Z,16.35
2018-05-27T05:14:23.286Z,16.38
2018-05-27T05:15:23.223Z,16.33
2018-05-27T05:16:23.219Z,16.42
2018-05-27T05:17:23.207Z,16.30
2018-05-27T05:18:23.200Z,16.33
2018-05-27T05:19:23.191Z,16.31
2018-05-27T05:20:23.187Z,16.43
2018-05-27T05:21:23.174Z,16.31
2018-05-27T05:22:23.163Z,16.30
2018-05-27T05:23:23.157Z,16.43
2018-05-27T05:24:23.206Z,16.39
2018-05-27T05:25:23.143Z,16.38
2018-05-27T05:26:23.131Z,16.38
2018-05-27T05:27:23.121Z,16.27
2018-05-27T05:28:23.116Z,16.24
2018-05-27T05:29:23.102Z,16.12
2018-05-27T05:30:23.094Z,16.11
2018-05-27T05:31:23.084Z,16.11
2018-05-27T05:32:23.080Z,16.08
2018-05-27T05:33:23.073Z,16.12
2018-05-27T05:34:23.062Z,16.21
2018-05-27T05:35:23.050Z,16.21
2018-05-27T05:36:23.065Z,16.27
2018-05-27T05:37:23.039Z,16.23
2018-05-27T05:38:23.031Z,16.31
2018-05-27T05:39:23.023Z,16.33
2018-05-27T05:40:23.003Z,16.42
2018-05-27T05:41:22.999Z,16.31
2018-05-27T05:42:22.993Z,16.35
2018-05-27T05:43:22.981Z,16.49
2018-05-27T05:44:22.976Z,16.41
2018-05-27T05:45:22.960Z,16.35
2018-05-27T05:46:22.954Z,16.27
2018-05-27T05:47:22.944Z,16.33
2018-05-27T05:48:22.941Z,16.27
2018-05-27T05:49:22.969Z,16.34
2018-05-27T05:50:22.919Z,16.43
2018-05-27T05:51:22.915Z,16.41
2018-05-27T05:52:22.897Z,16.38
2018-05-27T05:53:22.891Z,16.50
2018-05-27T05:54:22.885Z,16.50
2018-05-27T05:55:22.870Z,16.52
2018-05-27T05:56:22.861Z,16.67
2018-05-27T05:57:22.856Z,16.60
2018-05-27T05:58:22.843Z,16.63
2018-05-27T05:59:22.837Z,16.71
2018-05-27T06:00:22.832Z,16.70
2018-05-27T06:01:22.814Z,16.66
2018-05-27T06:02:22.815Z,16.75
2018-05-27T06:03:22.802Z,16.78
2018-05-27T06:04:22.795Z,16.81
2018-05-27T06:05:22.783Z,16.88
2018-05-27T06:06:22.775Z,16.88
2018-05-27T06:07:22.765Z,16.96
2018-05-27T06:08:22.763Z,16.96
2018-05-27T06:09:22.756Z,16.98
2018-05-27T06:10:22.743Z,16.98
2018-05-27T06:11:22.735Z,16.97
2018-05-27T06:12:22.724Z,17.04
2018-05-27T06:13:22.713Z,17.11
2018-05-27T06:14:22.704Z,17.11
2018-05-27T06:15:22.703Z,17.16
2018-05-27T06:16:22.689Z,17.21
2018-05-27T06:17:22.676Z,17.14
2018-05-27T06:18:22.672Z,17.28
2018-05-27T06:19:22.666Z,17.33
2018-05-27T06:20:22.657Z,17.23
2018-05-27T06:21:22.648Z,17.25
2018-05-27T06:22:22.637Z,17.46
2018-05-27T06:23:22.628Z,17.46
2018-05-27T06:24:22.620Z,17.55
2018-05-27T06:25:22.613Z,17.62
2018-05-27T06:26:22.602Z,17.59
2018-05-27T06:27:22.592Z,17.74
2018-05-27T06:28:22.588Z,17.71
2018-05-27T06:29:22.575Z,17.72
2018-05-27T06:30:22.569Z,17.77
2018-05-27T06:31:22.557Z,17.86
2018-05-27T06:32:22.558Z,17.84
2018-05-27T06:33:22.543Z,17.77
2018-05-27T06:34:22.538Z,17.82
2018-05-27T06:35:22.530Z,17.86
2018-05-27T06:36:22.519Z,17.90
2018-05-27T06:37:22.516Z,17.90
2018-05-27T06:38:22.498Z,17.87
2018-05-27T06:39:22.491Z,17.97
2018-05-27T06:40:22.491Z,17.96
2018-05-27T06:41:22.478Z,17.89
2018-05-27T06:42:22.470Z,17.95
2018-05-27T06:43:22.464Z,17.92
2018-05-27T06:44:22.453Z,17.93
2018-05-27T06:45:22.439Z,18.08
2018-05-27T06:46:22.436Z,18.15
2018-05-27T06:47:22.435Z,18.17
2018-05-27T06:48:22.418Z,18.29
2018-05-27T06:49:22.415Z,18.32
2018-05-27T06:50:22.397Z,18.39
2018-05-27T06:51:22.395Z,18.41
2018-05-27T06:52:22.384Z,18.47
2018-05-27T06:53:22.378Z,18.47
2018-05-27T06:54:22.369Z,18.54
2018-05-27T06:55:22.364Z,18.54
2018-05-27T06:56:22.361Z,18.47
2018-05-27T06:57:22.348Z,18.58
2018-05-27T06:58:22.342Z,18.58
2018-05-27T06:59:22.326Z,18.55
2018-05-27T07:00:22.325Z,18.58
2018-05-27T07:01:22.313Z,18.57
2018-05-27T07:02:22.305Z,18.57
2018-05-27T07:03:22.301Z,18.55
2018-05-27T07:04:22.312Z,18.57
2018-05-27T07:05:22.290Z,18.66
2018-05-27T07:06:22.275Z,18.76
2018-05-27T07:07:22.271Z,18.87
2018-05-27T07:08:22.263Z,18.95
2018-05-27T07:09:22.248Z,19.13
2018-05-27T07:10:22.243Z,19.19
2018-05-27T07:11:22.240Z,19.13
2018-05-27T07:12:22.232Z,19.16
2018-05-27T07:13:22.221Z,19.23
2018-05-27T07:14:22.216Z,19.13
2018-05-27T07:15:22.206Z,19.06
2018-05-27T07:16:22.199Z,19.07
2018-05-27T07:17:22.192Z,19.08
2018-05-27T07:18:22.187Z,19.00
2018-05-27T07:19:22.175Z,18.99
2018-05-27T07:20:22.165Z,19.07
2018-05-27T07:21:22.159Z,19.00
2018-05-27T07:22:22.151Z,19.07
2018-05-27T07:23:22.145Z,19.22
2018-05-27T07:24:22.138Z,19.22
2018-05-27T07:25:22.128Z,19.28
2018-05-27T07:26:22.122Z,19.22
2018-05-27T07:27:22.114Z,19.31
2018-05-27T07:28:22.106Z,19.39
2018-05-27T07:29:22.102Z,19.48
2018-05-27T07:30:22.101Z,19.44
2018-05-27T07:31:22.087Z,19.40
2018-05-27T07:32:22.080Z,19.32
2018-05-27T07:33:22.073Z,19.22
2018-05-27T07:34:22.060Z,19.18
2018-05-27T07:35:22.060Z,19.21
2018-05-27T07:36:22.052Z,19.21
2018-05-27T07:37:22.036Z,19.13
2018-05-27T07:38:22.037Z,19.16
2018-05-27T07:39:22.022Z,19.21
2018-05-27T07:40:22.020Z,19.16
2018-05-27T07:41:22.008Z,19.11
2018-05-27T07:42:22.004Z,19.04
2018-05-27T07:43:21.994Z,19.02
2018-05-27T07:44:21.992Z,19.02
2018-05-27T07:45:21.976Z,18.98
2018-05-27T07:46:21.972Z,18.90
2018-05-27T07:47:21.962Z,18.80
2018-05-27T07:48:21.965Z,18.81
2018-05-27T07:49:21.949Z,18.69
2018-05-27T07:50:21.943Z,18.73
2018-05-27T07:51:21.933Z,18.70
2018-05-27T07:52:21.929Z,18.81
2018-05-27T07:53:21.921Z,18.85
2018-05-27T07:54:21.909Z,18.87
2018-05-27T07:55:21.909Z,18.95
2018-05-27T07:56:21.896Z,19.02
2018-05-27T07:57:21.886Z,19.21
2018-05-27T07:58:21.942Z,19.19
2018-05-27T07:59:21.870Z,19.31
2018-05-27T08:00:21.862Z,19.32
2018-05-27T08:01:21.858Z,19.36
2018-05-27T08:02:21.850Z,19.40
2018-05-27T08:03:21.843Z,19.44
2018-05-27T08:04:21.838Z,19.58
2018-05-27T08:05:21.830Z,19.54
2018-05-27T08:06:21.824Z,19.51
2018-05-27T08:07:21.814Z,19.50
2018-05-27T08:08:21.810Z,19.50
2018-05-27T08:09:21.803Z,19.44
2018-05-27T08:10:21.793Z,19.31
2018-05-27T08:11:21.787Z,19.29
2018-05-27T08:12:21.777Z,19.28
2018-05-27T08:13:21.771Z,19.33
2018-05-27T08:14:21.766Z,19.28
2018-05-27T08:15:21.758Z,19.32
2018-05-27T08:16:21.754Z,19.41
2018-05-27T08:17:21.745Z,19.43
2018-05-27T08:18:21.733Z,19.48
2018-05-27T08:19:21.730Z,19.55
2018-05-27T08:20:21.723Z,19.56
2018-05-27T08:21:21.709Z,19.54
2018-05-27T08:22:21.704Z,19.62
2018-05-27T08:23:21.698Z,19.63
2018-05-27T08:24:21.692Z,19.74
2018-05-27T08:25:21.681Z,19.73
2018-05-27T08:26:21.671Z,19.83
2018-05-27T08:27:21.669Z,19.77
2018-05-27T08:28:21.660Z,19.81
2018-05-27T08:29:21.650Z,19.88
2018-05-27T08:30:21.653Z,19.99
2018-05-27T08:31:21.642Z,20.02
2018-05-27T08:32:21.636Z,20.18
2018-05-27T08:33:21.624Z,20.17
2018-05-27T08:34:21.618Z,20.28
2018-05-27T08:35:21.612Z,20.26
2018-05-27T08:36:21.605Z,20.28
2018-05-27T08:37:21.601Z,20.41
2018-05-27T08:38:21.585Z,20.39
2018-05-27T08:39:21.586Z,20.54
2018-05-27T08:40:21.579Z,20.50
2018-05-27T08:41:21.567Z,20.57
2018-05-27T08:42:21.561Z,20.61
2018-05-27T08:43:21.576Z,20.70
2018-05-27T08:44:21.546Z,20.77
2018-05-27T08:45:21.544Z,20.79
2018-05-27T08:46:21.538Z,20.79
2018-05-27T08:47:21.524Z,20.80
2018-05-27T08:48:21.540Z,20.92
2018-05-27T08:49:21.515Z,20.99
2018-05-27T08:50:21.514Z,20.99
2018-05-27T08:51:21.499Z,21.01
2018-05-27T08:52:21.497Z,21.04
2018-05-27T08:53:21.529Z,21.12
2018-05-27T08:54:21.483Z,21.12
2018-05-27T08:55:21.474Z,21.16
2018-05-27T08:56:21.479Z,21.10
2018-05-27T08:57:21.480Z,21.14
2018-05-27T08:58:21.453Z,21.21
2018-05-27T08:59:21.446Z,21.29
2018-05-27T09:00:21.439Z,21.42
2018-05-27T09:01:21.556Z,21.54
2018-05-27T09:02:21.425Z,21.61
2018-05-27T09:03:21.423Z,21.61
2018-05-27T09:04:21.412Z,21.54
2018-05-27T09:05:21.407Z,21.58
2018-05-27T09:06:21.400Z,21.67
2018-05-27T09:07:21.403Z,21.71
2018-05-27T09:08:21.392Z,21.88
2018-05-27T09:09:21.383Z,22.06
2018-05-27T09:10:21.374Z,22.03
2018-05-27T09:11:21.367Z,21.98
2018-05-27T09:12:21.361Z,22.03
2018-05-27T09:13:21.351Z,22.03
2018-05-27T09:14:21.347Z,21.99
2018-05-27T09:15:21.370Z,21.98
2018-05-27T09:16:21.336Z,22.00
2018-05-27T09:17:21.329Z,21.99
2018-05-27T09:18:21.333Z,22.05
2018-05-27T09:19:21.322Z,22.03
2018-05-27T09:20:21.314Z,22.06
2018-05-27T09:21:21.316Z,22.12
2018-05-27T09:22:21.309Z,21.94
2018-05-27T09:23:21.296Z,21.83
2018-05-27T09:24:21.288Z,21.90
2018-05-27T09:25:21.282Z,21.82
2018-05-27T09:26:21.276Z,21.80
2018-05-27T09:27:21.271Z,21.77
2018-05-27T09:28:21.267Z,21.75
2018-05-27T09:29:21.254Z,21.83
2018-05-27T09:30:21.253Z,21.72
2018-05-27T09:31:21.247Z,21.82
2018-05-27T09:32:21.241Z,21.59
2018-05-27T09:33:21.235Z,21.61
2018-05-27T09:34:21.225Z,21.71
2018-05-27T09:35:21.225Z,21.79
2018-05-27T09:36:21.217Z,21.83
2018-05-27T09:37:21.214Z,21.86
2018-05-27T09:38:21.202Z,21.86
2018-05-27T09:39:21.193Z,21.86
2018-05-27T09:40:21.194Z,21.90
2018-05-27T09:41:21.190Z,21.84
2018-05-27T09:42:21.178Z,21.94
2018-05-27T09:43:21.171Z,22.02
2018-05-27T09:44:21.172Z,22.14
2018-05-27T09:45:21.182Z,22.07
2018-05-27T09:46:21.158Z,22.22
2018-05-27T09:47:21.148Z,22.24
2018-05-27T09:48:21.148Z,22.40
2018-05-27T09:49:21.137Z,22.33
2018-05-27T09:50:21.133Z,22.18
2018-05-27T09:51:21.171Z,22.33
2018-05-27T09:52:21.119Z,22.18
2018-05-27T09:53:21.115Z,22.27
2018-05-27T09:54:21.109Z,22.22
2018-05-27T09:55:21.103Z,22.28
2018-05-27T09:56:21.097Z,22.30
2018-05-27T09:57:21.096Z,22.37
2018-05-27T09:58:21.086Z,22.40
2018-05-27T09:59:21.077Z,22.37
2018-05-27T10:00:21.067Z,22.35
2018-05-27T10:01:21.066Z,22.30
2018-05-27T10:02:21.060Z,22.28
2018-05-27T10:03:21.056Z,22.36
2018-05-27T10:04:21.044Z,22.55
2018-05-27T10:05:21.040Z,22.72
2018-05-27T10:06:21.035Z,22.86
2018-05-27T10:07:21.033Z,23.10
2018-05-27T10:08:21.033Z,23.19
2018-05-27T10:09:21.018Z,23.23
2018-05-27T10:10:21.013Z,23.42
2018-05-27T10:11:21.012Z,23.55
2018-05-27T10:12:21.004Z,23.68
2018-05-27T10:13:20.991Z,23.85
2018-05-27T10:14:20.993Z,23.88
2018-05-27T10:15:20.987Z,23.94
2018-05-27T10:16:20.977Z,23.88
2018-05-27T10:17:20.977Z,23.84
2018-05-27T10:18:20.968Z,23.97
2018-05-27T10:19:20.965Z,24.12
2018-05-27T10:20:20.959Z,24.16
2018-05-27T10:21:20.954Z,24.22
2018-05-27T10:22:20.953Z,24.25
2018-05-27T10:23:20.946Z,24.37
2018-05-27T10:24:20.938Z,24.31
2018-05-27T10:25:20.933Z,24.32
2018-05-27T10:26:20.923Z,24.34
2018-05-27T10:27:20.918Z,24.35
2018-05-27T10:28:20.918Z,24.46
2018-05-27T10:29:20.911Z,24.55
2018-05-27T10:30:20.916Z,24.60
2018-05-27T10:31:20.905Z,24.57
2018-05-27T10:32:20.901Z,24.61
2018-05-27T10:33:20.892Z,24.53
2018-05-27T10:34:20.888Z,24.58
2018-05-27T10:35:20.877Z,24.71
2018-05-27T10:36:20.881Z,24.73
2018-05-27T10:37:20.872Z,24.64
2018-05-27T10:38:20.869Z,24.77
2018-05-27T10:39:20.866Z,24.55
2018-05-27T10:40:20.861Z,24.64
2018-05-27T10:41:20.852Z,24.60
2018-05-27T10:42:20.848Z,24.55
2018-05-27T10:43:20.845Z,24.69
2018-05-27T10:44:20.842Z,24.85
2018-05-27T10:45:20.836Z,24.81
2018-05-27T10:46:20.830Z,24.87
2018-05-27T10:47:20.830Z,24.87
2018-05-27T10:48:20.821Z,24.85
2018-05-27T10:49:20.820Z,24.85
2018-05-27T10:50:20.814Z,24.90
2018-05-27T10:51:20.806Z,24.93
2018-05-27T10:52:20.809Z,24.91
2018-05-27T10:53:20.801Z,24.99
2018-05-27T10:54:20.797Z,24.95
2018-05-27T10:55:20.791Z,24.93
2018-05-27T10:56:20.789Z,24.95
2018-05-27T10:57:20.782Z,24.87
2018-05-27T10:58:20.779Z,24.85
2018-05-27T10:59:20.775Z,24.84
2018-05-27T11:00:20.768Z,24.84
2018-05-27T11:01:20.766Z,24.76
2018-05-27T11:02:20.760Z,24.85
2018-05-27T11:03:20.764Z,24.87
2018-05-27T11:04:20.753Z,24.91
2018-05-27T11:05:20.750Z,24.95
2018-05-27T11:06:20.743Z,24.93
2018-05-27T11:07:20.739Z,25.00
2018-05-27T11:08:20.733Z,25.02
2018-05-27T11:09:20.732Z,25.08
2018-05-27T11:10:20.730Z,25.02
2018-05-27T11:11:20.719Z,25.13
2018-05-27T11:12:20.721Z,25.08
2018-05-27T11:13:20.719Z,25.06
2018-05-27T11:14:20.707Z,25.13
2018-05-27T11:15:20.705Z,25.06
2018-05-27T11:16:20.700Z,25.15
2018-05-27T11:17:20.694Z,25.14
2018-05-27T11:18:20.692Z,25.09
2018-05-27T11:19:20.686Z,25.13
2018-05-27T11:20:20.684Z,25.13
2018-05-27T11:21:20.678Z,25.15
2018-05-27T11:22:20.674Z,25.14
2018-05-27T11:23:20.669Z,25.14
2018-05-27T11:24:20.665Z,25.21
2018-05-27T11:25:20.661Z,25.15
2018-05-27T11:26:20.655Z,25.17
2018-05-27T11:27:20.653Z,25.24
2018-05-27T11:28:20.652Z,25.28
2018-05-27T11:29:20.643Z,25.23
2018-05-27T11:30:20.639Z,25.18
2018-05-27T11:31:20.633Z,25.15
2018-05-27T11:32:20.634Z,25.14
2018-05-27T11:33:20.625Z,25.28
2018-05-27T11:34:20.624Z,25.20
2018-05-27T11:35:20.630Z,25.21
2018-05-27T11:36:20.616Z,25.25
2018-05-27T11:37:20.610Z,25.23
2018-05-27T11:38:20.606Z,25.27
2018-05-27T11:39:20.606Z,25.18
2018-05-27T11:40:20.597Z,25.35
2018-05-27T11:41:20.595Z,25.30
2018-05-27T11:42:20.595Z,25.33
2018-05-27T11:43:20.587Z,25.45
2018-05-27T11:44:20.583Z,25.42
2018-05-27T11:45:20.576Z,25.32
2018-05-27T11:46:20.583Z,25.28
2018-05-27T11:47:20.572Z,25.30
2018-05-27T11:48:20.566Z,25.28
2018-05-27T11:49:20.559Z,25.27
2018-05-27T11:50:20.561Z,25.27
2018-05-27T11:51:20.555Z,25.21
2018-05-27T11:52:20.555Z,25.13
2018-05-27T11:53:20.548Z,25.05
2018-05-27T11:54:20.544Z,25.05
2018-05-27T11:55:20.547Z,25.06
2018-05-27T11:56:20.541Z,25.06
2018-05-27T11:57:20.527Z,25.05
2018-05-27T11:58:20.524Z,25.08
2018-05-27T11:59:20.522Z,25.14
2018-05-27T12:00:20.522Z,25.06
2018-05-27T12:01:20.514Z,25.08
2018-05-27T12:02:20.512Z,25.14
2018-05-27T12:03:20.506Z,25.23
2018-05-27T12:04:20.497Z,25.35
2018-05-27T12:05:20.497Z,25.33
2018-05-27T12:06:20.495Z,25.45
2018-05-27T12:07:20.489Z,25.47
2018-05-27T12:08:20.485Z,25.60
2018-05-27T12:09:20.571Z,25.62
2018-05-27T12:10:20.475Z,25.67
2018-05-27T12:11:20.472Z,25.73
2018-05-27T12:12:20.470Z,25.91
2018-05-27T12:13:20.464Z,25.91
2018-05-27T12:14:20.467Z,26.01
2018-05-27T12:15:20.453Z,25.97
2018-05-27T12:16:20.455Z,26.17
2018-05-27T12:17:20.449Z,26.15
2018-05-27T12:18:20.444Z,26.28
2018-05-27T12:19:20.441Z,26.13
2018-05-27T12:20:20.438Z,26.28
2018-05-27T12:21:20.436Z,26.29
2018-05-27T12:22:20.430Z,26.23
2018-05-27T12:23:20.434Z,26.35
2018-05-27T12:24:20.424Z,26.40
2018-05-27T12:25:20.421Z,26.26
2018-05-27T12:26:20.412Z,26.15
2018-05-27T12:27:20.414Z,26.30
2018-05-27T12:28:20.411Z,26.43
2018-05-27T12:29:20.402Z,26.57
2018-05-27T12:30:20.403Z,26.57
2018-05-27T12:31:20.399Z,26.69
2018-05-27T12:32:20.397Z,26.72
2018-05-27T12:33:20.393Z,26.72
2018-05-27T12:34:20.384Z,26.87
2018-05-27T12:35:20.387Z,26.91
2018-05-27T12:36:20.384Z,26.85
2018-05-27T12:37:20.378Z,26.69
2018-05-27T12:38:20.378Z,26.69
2018-05-27T12:39:20.372Z,26.73
2018-05-27T12:40:20.375Z,26.70
2018-05-27T12:41:20.382Z,26.69
2018-05-27T12:42:20.362Z,26.81
2018-05-27T12:43:20.367Z,26.70
2018-05-27T12:44:20.353Z,26.77
2018-05-27T12:45:20.351Z,26.92
2018-05-27T12:46:20.362Z,26.92
2018-05-27T12:47:20.349Z,26.92
2018-05-27T12:48:20.348Z,27.00
2018-05-27T12:49:20.340Z,27.13
2018-05-27T12:50:20.340Z,27.10
2018-05-27T12:51:20.334Z,27.22
2018-05-27T12:52:20.333Z,27.29